createdAt,value
2023-01-10T00:01:13.113Z,5.34
2023-01-10T00:03:45.708Z,5.35
2023-01-10T00:06:18.184Z,5.35
2023-01-10T00:08:50.602Z,5.33
2023-01-10T00:11:44.172Z,5.33
2023-01-10T00:14:17.411Z,5.32
2023-01-10T00:16:52.950Z,5.32
2023-01-10T00:19:25.474Z,5.28
2023-01-10T00:22:02.772Z,5.29
2023-01-10T00:24:35.278Z,5.28
2023-01-10T00:27:11.345Z,5.26
2023-01-10T00:29:43.951Z,5.24
2023-01-10T00:32:16.485Z,5.23
2023-01-10T00:34:49.091Z,5.22
2023-01-10T00:37:21.940Z,5.24
2023-01-10T00:39:55.547Z,5.23
2023-01-10T00:42:45.896Z,5.21
2023-01-10T00:45:22.743Z,5.22
2023-01-10T00:47:56.555Z,5.22
2023-01-10T00:50:29.008Z,5.22
2023-01-10T00:53:01.914Z,5.22
2023-01-10T00:55:35.222Z,5.21
2023-01-10T00:58:08.552Z,5.19
2023-01-10T01:00:41.146Z,5.19
2023-01-10T01:03:14.610Z,5.20
2023-01-10T01:05:48.813Z,5.20
2023-01-10T01:08:22.160Z,5.20
2023-01-10T01:10:54.581Z,5.21
2023-01-10T01:13:26.944Z,5.23
2023-01-10T01:16:02.264Z,5.24
2023-01-10T01:18:35.372Z,5.28
2023-01-10T01:21:08.696Z,5.30
2023-01-10T01:23:44.567Z,5.31
2023-01-10T01:26:16.895Z,5.33
2023-01-10T01:28:49.867Z,5.35
2023-01-10T01:31:22.612Z,5.37
2023-01-10T01:33:55.014Z,5.39
2023-01-10T01:36:28.833Z,5.40
2023-01-10T01:39:01.312Z,5.41
2023-01-10T01:41:51.828Z,5.39
2023-01-10T01:44:24.282Z,5.38
2023-01-10T01:47:05.867Z,5.39
2023-01-10T01:49:41.990Z,5.40
2023-01-10T01:52:20.154Z,5.39
2023-01-10T01:54:53.897Z,5.39
2023-01-10T01:57:29.041Z,5.38
2023-01-10T02:00:05.141Z,5.38
2023-01-10T02:03:01.849Z,5.37
2023-01-10T02:05:40.449Z,5.37
2023-01-10T02:08:13.816Z,5.35
2023-01-10T02:10:52.557Z,5.32
2023-01-10T02:13:28.154Z,5.32
2023-01-10T02:16:01.514Z,5.33
2023-01-10T02:18:34.069Z,5.33
2023-01-10T02:21:32.570Z,5.36
2023-01-10T02:24:33.339Z,5.40
2023-01-10T02:27:20.451Z,5.41
2023-01-10T02:30:29.518Z,5.41
2023-01-10T02:33:08.062Z,5.43
2023-01-10T02:36:09.881Z,5.43
2023-01-10T02:38:54.358Z,5.39
2023-01-10T02:41:38.127Z,5.32
2023-01-10T02:44:21.367Z,5.31
2023-01-10T02:46:53.756Z,5.28
2023-01-10T02:49:26.678Z,5.28
2023-01-10T02:51:59.708Z,5.30
2023-01-10T02:54:33.352Z,5.34
2023-01-10T02:57:29.014Z,5.34
2023-01-10T03:00:26.128Z,5.32
2023-01-10T03:03:16.276Z,5.33
2023-01-10T03:06:07.797Z,5.34
2023-01-10T03:08:44.309Z,5.34
2023-01-10T03:11:37.031Z,5.32
2023-01-10T03:14:14.087Z,5.33
2023-01-10T03:16:51.941Z,5.33
2023-01-10T03:19:28.311Z,5.34
2023-01-10T03:22:03.894Z,5.32
2023-01-10T03:24:42.133Z,5.32
2023-01-10T03:27:21.624Z,5.31
2023-01-10T03:30:02.876Z,5.31
2023-01-10T03:32:35.756Z,5.32
2023-01-10T03:35:10.859Z,5.30
2023-01-10T03:37:53.967Z,5.26
2023-01-10T03:40:37.744Z,5.27
2023-01-10T03:43:35.615Z,5.26
2023-01-10T03:46:12.676Z,5.25
2023-01-10T03:48:48.300Z,5.24
2023-01-10T03:51:22.168Z,5.26
2023-01-10T03:53:54.725Z,5.26
2023-01-10T03:56:27.115Z,5.25
2023-01-10T03:58:59.977Z,5.25
2023-01-10T04:01:32.413Z,5.26
2023-01-10T04:04:05.388Z,5.26
2023-01-10T04:06:37.905Z,5.28
2023-01-10T04:09:10.830Z,5.27
2023-01-10T04:11:43.252Z,5.25
2023-01-10T04:14:15.596Z,5.23
2023-01-10T04:16:48.231Z,5.23
2023-01-10T04:19:20.634Z,5.20
2023-01-10T04:21:53.457Z,5.15
2023-01-10T04:24:26.468Z,5.11
2023-01-10T04:26:58.893Z,5.12
2023-01-10T04:29:31.279Z,5.15
2023-01-10T04:32:04.012Z,5.18
2023-01-10T04:34:36.444Z,5.20
2023-01-10T04:37:08.808Z,5.21
2023-01-10T04:39:41.178Z,5.22
2023-01-10T04:42:14.015Z,5.22
2023-01-10T04:44:46.337Z,5.24
2023-01-10T04:47:18.644Z,5.25
2023-01-10T04:49:50.989Z,5.27
2023-01-10T04:52:28.638Z,5.26
2023-01-10T04:55:01.020Z,5.24
2023-01-10T04:57:33.766Z,5.22
2023-01-10T05:00:07.997Z,5.23
2023-01-10T05:02:44.529Z,5.25
2023-01-10T05:05:17.791Z,5.24
2023-01-10T05:07:50.485Z,5.23
2023-01-10T05:10:23.073Z,5.24
2023-01-10T05:12:55.362Z,5.23
2023-01-10T05:15:27.771Z,5.22
2023-01-10T05:18:02.463Z,5.21
2023-01-10T05:20:35.189Z,5.23
2023-01-10T05:23:07.597Z,5.26
2023-01-10T05:25:40.054Z,5.27
2023-01-10T05:28:12.742Z,5.26
2023-01-10T05:30:45.137Z,5.22
2023-01-10T05:33:17.629Z,5.20
2023-01-10T05:35:50.117Z,5.19
2023-01-10T05:38:22.788Z,5.17
2023-01-10T05:40:59.711Z,5.14
2023-01-10T05:43:32.121Z,5.14
2023-01-10T05:46:04.645Z,5.15
2023-01-10T05:48:37.506Z,5.17
2023-01-10T05:51:10.340Z,5.20
2023-01-10T05:53:43.580Z,5.20
2023-01-10T05:56:16.178Z,5.20
2023-01-10T05:58:51.477Z,5.21
2023-01-10T06:01:27.773Z,5.16
2023-01-10T06:04:00.932Z,5.14
2023-01-10T06:06:34.584Z,5.12
2023-01-10T06:09:09.418Z,5.12
2023-01-10T06:11:41.797Z,5.14
2023-01-10T06:14:19.183Z,5.15
2023-01-10T06:16:51.904Z,5.16
2023-01-10T06:19:26.071Z,5.16
2023-01-10T06:21:59.345Z,5.18
2023-01-10T06:24:31.736Z,5.17
2023-01-10T06:27:04.161Z,5.18
2023-01-10T06:29:36.806Z,5.15
2023-01-10T06:32:11.415Z,5.14
2023-01-10T06:34:43.771Z,5.15
2023-01-10T06:37:17.332Z,5.15
2023-01-10T06:39:51.352Z,5.11
2023-01-10T06:42:23.822Z,5.09
2023-01-10T06:44:56.745Z,5.09
2023-01-10T06:47:29.144Z,5.09
2023-01-10T06:50:01.693Z,5.09
2023-01-10T06:52:34.574Z,5.12
2023-01-10T06:55:10.872Z,5.13
2023-01-10T06:57:43.656Z,5.11
2023-01-10T07:00:18.119Z,5.10
2023-01-10T07:02:50.555Z,5.08
2023-01-10T07:05:23.724Z,5.09
2023-01-10T07:07:56.835Z,5.11
2023-01-10T07:10:29.495Z,5.13
2023-01-10T07:13:02.594Z,5.16
2023-01-10T07:15:38.718Z,5.16
2023-01-10T07:18:12.772Z,5.15
2023-01-10T07:20:45.598Z,5.14
2023-01-10T07:23:19.002Z,5.15
2023-01-10T07:25:51.734Z,5.16
2023-01-10T07:28:24.622Z,5.19
2023-01-10T07:30:59.302Z,5.20
2023-01-10T07:33:33.008Z,5.23
2023-01-10T07:36:05.882Z,5.24
2023-01-10T07:38:38.657Z,5.23
2023-01-10T07:41:13.332Z,5.26
2023-01-10T07:43:45.784Z,5.25
2023-01-10T07:46:18.539Z,5.24
2023-01-10T07:48:53.827Z,5.23
2023-01-10T07:51:26.116Z,5.24
2023-01-10T07:53:58.436Z,5.22
2023-01-10T07:56:30.958Z,5.21
2023-01-10T07:59:03.384Z,5.19
2023-01-10T08:01:35.667Z,5.20
2023-01-10T08:04:08.172Z,5.19
2023-01-10T08:06:40.461Z,5.19
2023-01-10T08:09:12.937Z,5.21
2023-01-10T08:11:45.351Z,5.23
2023-01-10T08:14:17.717Z,5.26
2023-01-10T08:16:50.107Z,5.26
2023-01-10T08:19:22.866Z,5.27
2023-01-10T08:21:55.679Z,5.27
2023-01-10T08:24:28.440Z,5.25
2023-01-10T08:27:05.180Z,5.22
2023-01-10T08:29:40.298Z,5.21
2023-01-10T08:32:13.027Z,5.17
2023-01-10T08:34:45.636Z,5.18
2023-01-10T08:37:18.015Z,5.19
2023-01-10T08:39:50.963Z,5.18
2023-01-10T08:42:23.331Z,5.20
2023-01-10T08:44:55.762Z,5.17
2023-01-10T08:47:29.538Z,5.16
2023-01-10T08:50:02.394Z,5.16
2023-01-10T08:52:35.379Z,5.17
2023-01-10T08:55:09.549Z,5.19
2023-01-10T08:57:42.436Z,5.20
2023-01-10T09:00:18.911Z,5.22
2023-01-10T09:02:51.932Z,5.18
2023-01-10T09:05:28.343Z,5.15
2023-01-10T09:08:03.638Z,5.15
2023-01-10T09:10:35.930Z,5.16
2023-01-10T09:13:09.705Z,5.17
2023-01-10T09:15:43.541Z,5.17
2023-01-10T09:18:16.444Z,5.20
2023-01-10T09:20:48.729Z,5.19
2023-01-10T09:23:23.567Z,5.19
2023-01-10T09:25:57.999Z,5.20
2023-01-10T09:28:30.427Z,5.19
2023-01-10T09:31:04.620Z,5.18
2023-01-10T09:33:46.148Z,5.19
2023-01-10T09:36:19.763Z,5.24
2023-01-10T09:38:52.173Z,5.26
2023-01-10T09:41:41.825Z,5.28
2023-01-10T09:44:20.396Z,5.26
2023-01-10T09:46:59.025Z,5.27
2023-01-10T09:49:48.124Z,5.28
2023-01-10T09:52:27.491Z,5.28
2023-01-10T09:55:05.753Z,5.29
2023-01-10T09:57:38.231Z,5.29
2023-01-10T10:00:16.838Z,5.25
2023-01-10T10:02:53.425Z,5.26
2023-01-10T10:05:28.629Z,5.23
2023-01-10T10:08:05.107Z,5.21
2023-01-10T10:10:43.003Z,5.18
2023-01-10T10:13:27.538Z,5.17
2023-01-10T10:16:09.066Z,5.18
2023-01-10T10:18:54.901Z,5.21
2023-01-10T10:21:36.997Z,5.24
2023-01-10T10:24:32.721Z,5.24
2023-01-10T10:27:17.529Z,5.20
2023-01-10T10:30:06.632Z,5.20
2023-01-10T10:32:57.836Z,5.21
2023-01-10T10:35:34.445Z,5.21
2023-01-10T10:38:13.762Z,5.25
2023-01-10T10:40:48.249Z,5.30
2023-01-10T10:43:25.834Z,5.30
2023-01-10T10:46:02.576Z,5.25
2023-01-10T10:48:40.951Z,5.22
2023-01-10T10:51:20.966Z,5.22
2023-01-10T10:53:54.896Z,5.23
2023-01-10T10:56:28.596Z,5.22
2023-01-10T10:59:02.371Z,5.22
2023-01-10T11:01:35.027Z,5.21
2023-01-10T11:04:13.602Z,5.24
2023-01-10T11:06:49.597Z,5.27
2023-01-10T11:09:26.035Z,5.32
2023-01-10T11:11:59.468Z,5.34
2023-01-10T11:14:47.253Z,5.36
2023-01-10T11:17:26.796Z,5.38
2023-01-10T11:20:01.737Z,5.39
2023-01-10T11:22:42.649Z,5.34
2023-01-10T11:25:19.649Z,5.34
2023-01-10T11:27:54.487Z,5.35
2023-01-10T11:30:29.818Z,5.36
2023-01-10T11:33:05.775Z,5.35
2023-01-10T11:35:41.513Z,5.29
2023-01-10T11:38:24.746Z,5.23
2023-01-10T11:40:59.721Z,5.19
2023-01-10T11:43:35.176Z,5.17
2023-01-10T11:46:16.633Z,5.18
2023-01-10T11:49:07.103Z,5.16
2023-01-10T11:51:45.945Z,5.19
2023-01-10T11:54:22.638Z,5.26
2023-01-10T11:57:00.195Z,5.29
2023-01-10T11:59:33.364Z,5.30
2023-01-10T12:02:12.971Z,5.29
2023-01-10T12:04:47.874Z,5.27
2023-01-10T12:07:20.173Z,5.25
2023-01-10T12:09:59.814Z,5.28
2023-01-10T12:12:34.406Z,5.27
2023-01-10T12:15:24.680Z,5.24
2023-01-10T12:18:00.332Z,5.22
2023-01-10T12:20:43.163Z,5.19
2023-01-10T12:23:19.147Z,5.13
2023-01-10T12:26:00.296Z,5.10
2023-01-10T12:28:42.433Z,5.12
2023-01-10T12:31:18.759Z,5.14
2023-01-10T12:33:55.909Z,5.17
2023-01-10T12:36:41.095Z,5.21
2023-01-10T12:39:21.062Z,5.20
2023-01-10T12:42:21.313Z,5.20
2023-01-10T12:45:01.137Z,5.18
2023-01-10T12:47:54.724Z,5.18
2023-01-10T12:50:32.700Z,5.18
2023-01-10T12:53:12.956Z,5.16
2023-01-10T12:55:47.654Z,5.18
2023-01-10T12:58:25.381Z,5.18
2023-01-10T13:01:01.742Z,5.14
2023-01-10T13:03:36.060Z,5.14
2023-01-10T13:06:09.318Z,5.15
2023-01-10T13:08:43.812Z,5.19
2023-01-10T13:11:21.663Z,5.20
2023-01-10T13:13:58.285Z,5.19
2023-01-10T13:16:43.664Z,5.19
2023-01-10T13:19:29.537Z,5.18
2023-01-10T13:22:22.990Z,5.22
2023-01-10T13:25:03.473Z,5.21
2023-01-10T13:27:36.798Z,5.20
2023-01-10T13:30:30.558Z,5.19
2023-01-10T13:33:08.238Z,5.20
2023-01-10T13:35:48.957Z,5.20
2023-01-10T13:38:28.127Z,5.20
2023-01-10T13:41:06.475Z,5.23
2023-01-10T13:44:01.072Z,5.22
2023-01-10T13:46:39.372Z,5.21
2023-01-10T13:49:43.573Z,5.20
2023-01-10T13:52:38.322Z,5.19
2023-01-10T13:55:34.369Z,5.18
2023-01-10T13:58:43.809Z,5.18
2023-01-10T14:01:46.152Z,5.18
2023-01-10T14:04:24.899Z,5.20
2023-01-10T14:07:00.947Z,5.22
2023-01-10T14:09:39.822Z,5.23
2023-01-10T14:12:23.621Z,5.22
2023-01-10T14:15:04.102Z,5.20
2023-01-10T14:17:38.545Z,5.19
2023-01-10T14:20:22.927Z,5.20
2023-01-10T14:23:05.069Z,5.20
2023-01-10T14:25:39.409Z,5.18
2023-01-10T14:28:22.912Z,5.17
2023-01-10T14:31:05.309Z,5.18
2023-01-10T14:33:39.027Z,5.17
2023-01-10T14:36:19.886Z,5.15
2023-01-10T14:38:57.044Z,5.14
2023-01-10T14:41:38.489Z,5.10
2023-01-10T14:44:15.158Z,5.09
2023-01-10T14:46:51.082Z,5.11
2023-01-10T14:49:26.653Z,5.11
2023-01-10T14:55:11.781Z,5.15
2023-01-10T14:57:56.220Z,5.11
2023-01-10T15:00:31.304Z,5.12
2023-01-10T15:03:09.602Z,5.12
2023-01-10T15:05:51.141Z,5.12
2023-01-10T15:08:26.503Z,5.11
2023-01-10T15:11:04.174Z,5.13
2023-01-10T15:13:43.007Z,5.14
2023-01-10T15:18:53.118Z,5.15
2023-01-10T15:21:26.250Z,5.14
2023-01-10T15:23:58.858Z,5.13
2023-01-10T15:26:34.301Z,5.12
2023-01-10T15:29:12.251Z,5.13
2023-01-10T15:31:45.176Z,5.12
2023-01-10T15:34:22.005Z,5.09
2023-01-10T15:36:58.574Z,5.09
2023-01-10T15:39:33.908Z,5.10
2023-01-10T15:42:09.956Z,5.11
2023-01-10T15:44:45.342Z,5.13
2023-01-10T15:47:42.022Z,5.14
2023-01-10T15:50:28.600Z,5.14
2023-01-10T15:53:02.765Z,5.16
2023-01-10T15:55:45.423Z,5.16
2023-01-10T15:58:24.007Z,5.18
2023-01-10T16:00:59.179Z,5.20
2023-01-10T16:03:35.891Z,5.18
2023-01-10T16:06:20.223Z,5.20
2023-01-10T16:08:54.482Z,5.21
2023-01-10T16:11:52.631Z,5.19
2023-01-10T16:14:25.529Z,5.19
2023-01-10T16:16:57.992Z,5.17
2023-01-10T16:19:30.544Z,5.15
2023-01-10T16:22:04.549Z,5.14
2023-01-10T16:24:43.749Z,5.13
2023-01-10T16:27:16.109Z,5.10
2023-01-10T16:29:48.432Z,5.09
2023-01-10T16:32:20.767Z,5.09
2023-01-10T16:34:53.013Z,5.09
2023-01-10T16:37:25.296Z,5.09
2023-01-10T16:39:59.185Z,5.10
2023-01-10T16:42:52.070Z,5.08
2023-01-10T16:45:24.487Z,5.09
2023-01-10T16:47:56.839Z,5.06
2023-01-10T16:50:29.326Z,5.04
2023-01-10T16:53:06.288Z,5.03
2023-01-10T16:55:44.352Z,5.03
2023-01-10T16:58:17.621Z,5.05
2023-01-10T17:00:53.653Z,5.08
2023-01-10T17:03:27.648Z,5.08
2023-01-10T17:06:02.595Z,5.08
2023-01-10T17:08:34.946Z,5.07
2023-01-10T17:11:12.427Z,5.05
2023-01-10T17:13:46.520Z,5.04
2023-01-10T17:16:19.931Z,5.03
2023-01-10T17:18:52.769Z,5.02
2023-01-10T17:21:25.570Z,5.00
2023-01-10T17:24:00.446Z,4.97
2023-01-10T17:26:32.999Z,4.91
2023-01-10T17:29:05.241Z,4.88
2023-01-10T17:31:37.663Z,4.86
2023-01-10T17:34:10.117Z,4.87
2023-01-10T17:36:42.669Z,4.89
2023-01-10T17:39:14.915Z,4.92
2023-01-10T17:41:47.247Z,4.92
2023-01-10T17:44:19.829Z,4.95
2023-01-10T17:46:54.840Z,4.99
2023-01-10T17:49:27.357Z,5.01
2023-01-10T17:52:00.196Z,5.02
2023-01-10T17:54:32.843Z,5.01
2023-01-10T17:57:06.261Z,4.99
2023-01-10T17:59:39.256Z,4.98
2023-01-10T18:02:18.728Z,4.96
2023-01-10T18:04:52.927Z,4.93
2023-01-10T18:07:25.416Z,4.91
2023-01-10T18:09:58.122Z,4.93
2023-01-10T18:12:30.394Z,4.94
2023-01-10T18:15:02.769Z,4.95
2023-01-10T18:17:35.220Z,4.96
2023-01-10T18:20:09.723Z,4.98
2023-01-10T18:23:03.422Z,4.99
2023-01-10T18:25:37.109Z,5.01
2023-01-10T18:28:09.630Z,5.04
2023-01-10T18:30:42.510Z,5.05
2023-01-10T18:33:15.262Z,5.05
2023-01-10T18:35:48.951Z,5.04
2023-01-10T18:38:21.657Z,5.05
2023-01-10T18:40:57.750Z,5.06
2023-01-10T18:43:33.303Z,5.06
2023-01-10T18:46:08.965Z,5.05
2023-01-10T18:48:41.285Z,5.02
2023-01-10T18:51:15.464Z,5.03
2023-01-10T18:53:49.205Z,5.04
2023-01-10T18:56:21.660Z,5.05
2023-01-10T18:58:54.086Z,5.05
2023-01-10T19:01:27.302Z,5.03
2023-01-10T19:04:00.248Z,5.03
2023-01-10T19:06:32.576Z,5.01
2023-01-10T19:09:05.436Z,4.97
2023-01-10T19:11:38.069Z,4.92
2023-01-10T19:14:10.415Z,4.86
2023-01-10T19:16:42.713Z,4.86
2023-01-10T19:19:15.035Z,4.86
2023-01-10T19:21:47.304Z,4.85
2023-01-10T19:24:24.700Z,4.87
2023-01-10T19:26:59.648Z,4.89
2023-01-10T19:29:32.191Z,4.88
2023-01-10T19:32:04.930Z,4.90
2023-01-10T19:34:39.251Z,4.86
2023-01-10T19:37:11.825Z,4.83
2023-01-10T19:39:44.187Z,4.82
2023-01-10T19:42:16.462Z,4.80
2023-01-10T19:44:50.937Z,4.81
2023-01-10T19:47:23.290Z,4.82
2023-01-10T19:49:55.871Z,4.83
2023-01-10T19:52:28.316Z,4.80
2023-01-10T19:55:03.088Z,4.79
2023-01-10T19:57:35.628Z,4.80
2023-01-10T20:00:10.014Z,4.81
2023-01-10T20:02:47.111Z,4.82
2023-01-10T20:05:20.441Z,4.84
2023-01-10T20:07:55.448Z,4.84
2023-01-10T20:10:29.007Z,4.88
2023-01-10T20:13:01.563Z,4.91
2023-01-10T20:15:34.800Z,4.92
2023-01-10T20:18:07.424Z,4.93
2023-01-10T20:20:41.511Z,4.90
2023-01-10T20:23:14.262Z,4.89
2023-01-10T20:25:56.322Z,4.87
2023-01-10T20:28:28.706Z,4.85
2023-01-10T20:31:01.836Z,4.85
2023-01-10T20:33:34.715Z,4.82
2023-01-10T20:36:09.163Z,4.80
2023-01-10T20:38:41.794Z,4.80
2023-01-10T20:41:16.823Z,4.81
2023-01-10T20:43:52.643Z,4.83
2023-01-10T20:46:27.926Z,4.83
2023-01-10T20:49:02.870Z,4.85
2023-01-10T20:51:37.585Z,4.89
2023-01-10T20:54:11.341Z,4.92
2023-01-10T20:56:43.929Z,4.91
2023-01-10T20:59:16.635Z,4.93
2023-01-10T21:01:49.119Z,4.90
2023-01-10T21:04:21.530Z,4.90
2023-01-10T21:06:54.119Z,4.89
2023-01-10T21:09:26.634Z,4.88
2023-01-10T21:12:13.625Z,4.86
2023-01-10T21:14:52.615Z,4.84
2023-01-10T21:17:25.061Z,4.83
2023-01-10T21:19:57.361Z,4.82
2023-01-10T21:22:32.169Z,4.79
2023-01-10T21:25:04.811Z,4.80
2023-01-10T21:27:37.200Z,4.84
2023-01-10T21:30:14.704Z,4.87
2023-01-10T21:32:47.336Z,4.90
2023-01-10T21:35:20.260Z,4.89
2023-01-10T21:37:52.708Z,4.88
2023-01-10T21:40:25.327Z,4.85
2023-01-10T21:42:58.124Z,4.84
2023-01-10T21:45:30.586Z,4.85
2023-01-10T21:48:03.217Z,4.89
2023-01-10T21:50:35.686Z,4.92
2023-01-10T21:53:08.147Z,4.97
2023-01-10T21:55:44.329Z,5.00
2023-01-10T21:58:17.748Z,5.02
2023-01-10T22:00:50.536Z,5.06
2023-01-10T22:06:36.157Z,5.17
2023-01-10T22:09:08.895Z,5.19
2023-01-10T22:11:41.183Z,5.21
2023-01-10T22:14:14.256Z,5.23
2023-01-10T22:16:46.620Z,5.23
2023-01-10T22:19:18.953Z,5.26
2023-01-10T22:21:51.629Z,5.27
2023-01-10T22:24:26.788Z,5.23
2023-01-10T22:26:59.946Z,5.20
2023-01-10T22:29:32.351Z,5.21
2023-01-10T22:32:04.933Z,5.20
2023-01-10T22:34:37.727Z,5.18
2023-01-10T22:37:10.145Z,5.17
2023-01-10T22:39:42.569Z,5.16
2023-01-10T22:42:15.017Z,5.14
2023-01-10T22:44:47.552Z,5.12
2023-01-10T22:47:20.385Z,5.12
2023-01-10T22:49:54.360Z,5.12
2023-01-10T22:52:26.791Z,5.13
2023-01-10T22:54:59.186Z,5.13
2023-01-10T22:57:33.184Z,5.13
2023-01-10T23:00:10.818Z,5.13
2023-01-10T23:02:43.447Z,5.13
2023-01-10T23:05:19.300Z,5.13
2023-01-10T23:07:53.168Z,5.12
2023-01-10T23:10:30.826Z,5.13
2023-01-10T23:13:07.458Z,5.14
2023-01-10T23:15:39.921Z,5.15
2023-01-10T23:18:12.561Z,5.16
2023-01-10T23:20:45.285Z,5.16
2023-01-10T23:23:18.111Z,5.13
2023-01-10T23:26:01.861Z,5.11
2023-01-10T23:28:36.423Z,5.08
2023-01-10T23:31:13.557Z,5.03
2023-01-10T23:33:46.538Z,5.01
2023-01-10T23:36:22.230Z,5.01
2023-01-10T23:38:54.879Z,5.01
2023-01-10T23:41:27.928Z,5.00
2023-01-10T23:44:01.922Z,4.99
2023-01-10T23:46:34.454Z,4.97
2023-01-10T23:49:09.937Z,4.95
2023-01-10T23:51:48.419Z,4.95
2023-01-10T23:54:24.963Z,4.90
2023-01-10T23:57:00.141Z,4.87
2023-01-10T23:59:38.245Z,4.83
